Time;durP1;ratioP1;P1;durP2;ratioP2;P2;SDS_P1;SDS_P2;PMS_P1;PMS_P2;Temp;Humidity;BMP_temperature;BMP_pressure;BME280_temperature;BME280_humidity;BME280_pressure;Samples;Min_cycle;Max_cycle;Signal;HPM_P1;HPM_P2
2023/03/10 00:00:33;;;;;;;;;;;;;;;16.81;41.99;94346.03;5031086;28;19955;-63
2023/03/10 00:03:00;;;;;;;;;;;;;;;17.05;40.88;94351.72;5033080;28;20488;-64
2023/03/10 00:05:27;;;;;;;;;;;;;;;17.13;40.67;94348.28;5027148;28;19947;-62
2023/03/10 00:07:53;;;;;;;;;;;;;;;17.20;40.40;94348.63;5031654;28;19953;-65
2023/03/10 00:10:20;;;;;;;;;;;;;;;17.23;40.39;94353.31;5032633;28;19958;-63
2023/03/10 00:12:47;;;;;;;;;;;;;;;17.17;40.51;94351.88;5031267;28;20041;-62
2023/03/10 00:15:13;;;;;;;;;;;;;;;17.12;40.75;94352.03;5030124;28;19958;-62
2023/03/10 00:17:40;;;;;;;;;;;;;;;17.05;41.08;94353.56;5032465;28;20324;-67
2023/03/10 00:20:10;;;;;;;;;;;;;;;16.62;42.04;94357.97;5032554;28;20035;-62
2023/03/10 00:22:40;;;;;;;;;;;;;;;16.65;42.27;94355.47;5031600;28;20034;-64
2023/03/10 00:25:08;;;;;;;;;;;;;;;16.53;42.29;94349.97;5030919;28;20320;-64
2023/03/10 00:27:34;;;;;;;;;;;;;;;15.45;44.43;94366.34;5031653;28;19947;-59
2023/03/10 00:30:01;;;;;;;;;;;;;;;15.92;43.57;94360.50;5022043;28;20011;-64
2023/03/10 00:32:28;;;;;;;;;;;;;;;16.05;43.36;94364.94;5031478;28;20388;-63
2023/03/10 00:34:55;;;;;;;;;;;;;;;16.05;43.71;94359.66;5032363;28;20078;-68
2023/03/10 00:37:22;;;;;;;;;;;;;;;15.99;43.12;94358.22;5031242;28;19947;-64
2023/03/10 00:39:50;;;;;;;;;;;;;;;16.38;42.41;94358.28;5032260;28;20002;-65
2023/03/10 00:42:17;;;;;;;;;;;;;;;16.51;42.30;94352.16;5027866;28;19951;-64
2023/03/10 00:44:44;;;;;;;;;;;;;;;16.42;42.32;94342.59;5029735;28;19952;-65
2023/03/10 00:47:11;;;;;;;;;;;;;;;16.67;41.49;94340.09;5031611;28;19944;-64
2023/03/10 00:49:38;;;;;;;;;;;;;;;16.71;41.25;94345.53;5030676;28;19995;-64
2023/03/10 00:52:05;;;;;;;;;;;;;;;16.59;41.58;94343.47;5030296;28;19950;-65
2023/03/10 00:54:32;;;;;;;;;;;;;;;16.49;41.47;94349.03;5031552;28;19950;-61
2023/03/10 00:56:59;;;;;;;;;;;;;;;16.51;41.66;94341.59;5031420;28;20388;-63
2023/03/10 00:59:25;;;;;;;;;;;;;;;16.59;42.09;94332.88;5029418;28;19945;-63
2023/03/10 01:01:55;;;;;;;;;;;;;;;16.45;42.19;94342.75;5031897;28;19960;-60
2023/03/10 01:04:21;;;;;;;;;;;;;;;16.53;42.01;94342.03;5031483;28;20430;-63
2023/03/10 01:06:48;;;;;;;;;;;;;;;16.50;41.92;94340.00;5031457;28;20054;-63
2023/03/10 01:09:15;;;;;;;;;;;;;;;16.44;42.07;94340.44;5031072;28;19944;-65
2023/03/10 01:11:42;;;;;;;;;;;;;;;16.60;42.22;94341.63;5031560;28;20078;-62
2023/03/10 01:14:11;;;;;;;;;;;;;;;16.63;41.81;94339.13;5028319;28;20445;-62
2023/03/10 01:16:38;;;;;;;;;;;;;;;16.39;42.80;94343.97;5029787;28;19951;-64
2023/03/10 01:19:05;;;;;;;;;;;;;;;16.46;42.16;94354.13;5029851;28;19947;-65
2023/03/10 01:21:33;;;;;;;;;;;;;;;15.63;43.33;94341.66;5030942;28;19948;-63
2023/03/10 01:24:01;;;;;;;;;;;;;;;15.93;43.74;94344.34;5034999;28;19950;-63
2023/03/10 01:26:28;;;;;;;;;;;;;;;15.83;44.06;94343.81;5046294;28;19992;-61
2023/03/10 01:28:55;;;;;;;;;;;;;;;15.85;43.56;94339.00;5029764;28;19962;-62
2023/03/10 01:31:21;;;;;;;;;;;;;;;16.16;42.74;94335.31;5030917;28;19954;-62
2023/03/10 01:33:48;;;;;;;;;;;;;;;16.14;42.44;94332.19;5030980;28;20036;-64
2023/03/10 01:36:24;;;;;;;;;;;;;;;16.10;43.12;94333.09;5030527;28;20045;-66
2023/03/10 01:38:52;;;;;;;;;;;;;;;15.94;42.97;94343.28;5029695;28;19939;-63
2023/03/10 01:41:19;;;;;;;;;;;;;;;16.07;42.70;94339.00;5030255;28;20332;-62
2023/03/10 01:43:48;;;;;;;;;;;;;;;15.96;43.49;94335.03;5029255;28;19956;-63
2023/03/10 01:46:33;;;;;;;;;;;;;;;15.98;42.89;94343.44;5030517;28;20459;-64
2023/03/10 01:49:30;;;;;;;;;;;;;;;15.85;43.42;94345.09;5020253;28;20047;-62
2023/03/10 01:51:59;;;;;;;;;;;;;;;15.73;43.41;94354.63;5014648;28;19955;-64
2023/03/10 01:54:48;;;;;;;;;;;;;;;15.21;44.61;94356.03;5029260;28;20003;-66
2023/03/10 01:57:17;;;;;;;;;;;;;;;15.68;43.85;94355.53;5028605;28;19948;-63
2023/03/10 01:59:44;;;;;;;;;;;;;;;15.62;43.27;94358.59;5026390;28;20061;-60
2023/03/10 02:02:11;;;;;;;;;;;;;;;15.58;43.92;94357.63;5028282;28;20044;-64
2023/03/10 02:04:43;;;;;;;;;;;;;;;15.44;43.50;94351.59;5028710;28;19953;-63
2023/03/10 02:07:11;;;;;;;;;;;;;;;15.37;43.74;94356.47;5030294;28;19938;-62
2023/03/10 02:09:41;;;;;;;;;;;;;;;15.42;43.47;94356.41;5017738;28;19952;-65
2023/03/10 02:12:08;;;;;;;;;;;;;;;15.33;44.11;94347.59;5033844;28;19943;-64
2023/03/10 02:14:37;;;;;;;;;;;;;;;15.16;44.20;94359.53;5022587;28;19950;-61
2023/03/10 02:17:06;;;;;;;;;;;;;;;14.02;46.25;94360.66;5024563;28;19957;-63
2023/03/10 02:19:34;;;;;;;;;;;;;;;13.66;47.90;94368.34;5030211;28;20006;-64
2023/03/10 02:22:03;;;;;;;;;;;;;;;14.11;47.21;94366.81;5028804;28;19958;-63
2023/03/10 02:24:34;;;;;;;;;;;;;;;14.35;46.11;94364.06;5028594;28;19974;-62
2023/03/10 02:27:23;;;;;;;;;;;;;;;14.75;45.12;94350.91;5029794;28;20011;-62
2023/03/10 02:29:56;;;;;;;;;;;;;;;14.91;44.95;94361.91;5029932;28;19966;-63
2023/03/10 02:32:32;;;;;;;;;;;;;;;14.33;46.07;94361.72;5027496;28;20026;-65
2023/03/10 02:34:59;;;;;;;;;;;;;;;14.67;45.66;94358.72;5028556;28;19957;-61
2023/03/10 02:37:28;;;;;;;;;;;;;;;14.67;45.40;94351.56;5015156;28;19965;-65
2023/03/10 02:39:56;;;;;;;;;;;;;;;14.95;44.21;94358.41;5028767;28;19953;-61
2023/03/10 02:42:24;;;;;;;;;;;;;;;14.88;45.19;94358.03;5030412;28;20050;-62
2023/03/10 02:44:51;;;;;;;;;;;;;;;14.90;45.25;94361.16;5028169;28;19995;-65
2023/03/10 02:47:19;;;;;;;;;;;;;;;14.75;45.64;94352.75;5028702;28;19992;-63
2023/03/10 02:49:46;;;;;;;;;;;;;;;14.69;46.04;94349.44;5045983;28;20279;-64
2023/03/10 02:52:33;;;;;;;;;;;;;;;14.86;45.31;94349.63;5029343;28;20419;-63
2023/03/10 02:54:59;;;;;;;;;;;;;;;14.90;44.80;94361.16;5028039;28;20391;-61
2023/03/10 02:57:26;;;;;;;;;;;;;;;14.77;45.58;94355.88;5044741;28;19944;-61
2023/03/10 02:59:53;;;;;;;;;;;;;;;14.68;45.03;94355.78;5026170;28;20318;-61
2023/03/10 03:02:20;;;;;;;;;;;;;;;14.78;44.83;94352.94;5029310;28;19956;-65
2023/03/10 03:04:46;;;;;;;;;;;;;;;14.53;46.13;94348.16;5013273;28;19949;-62
2023/03/10 03:07:13;;;;;;;;;;;;;;;14.84;44.56;94353.63;5028304;28;20059;-64
2023/03/10 03:09:40;;;;;;;;;;;;;;;14.90;44.88;94361.16;5028480;28;20384;-64
2023/03/10 03:12:07;;;;;;;;;;;;;;;15.12;44.26;94353.31;5028900;28;19994;-61
2023/03/10 03:14:33;;;;;;;;;;;;;;;15.20;44.24;94355.22;5027002;28;19947;-63
2023/03/10 03:17:03;;;;;;;;;;;;;;;15.38;44.03;94355.41;5027079;28;19958;-63
2023/03/10 03:19:30;;;;;;;;;;;;;;;15.51;44.02;94349.34;5029094;28;19945;-62
2023/03/10 03:21:57;;;;;;;;;;;;;;;15.58;43.64;94344.41;5027130;28;20023;-64
2023/03/10 03:24:24;;;;;;;;;;;;;;;15.09;45.14;94351.25;5042516;28;20076;-61
2023/03/10 03:26:50;;;;;;;;;;;;;;;15.36;44.62;94349.63;5028536;28;19971;-63
2023/03/10 03:29:22;;;;;;;;;;;;;;;14.95;45.58;94342.59;5023655;28;20031;-63
2023/03/10 03:31:49;;;;;;;;;;;;;;;15.21;44.61;94338.34;5011928;28;19952;-66
2023/03/10 03:34:19;;;;;;;;;;;;;;;15.33;44.61;94337.03;5015455;28;20308;-60
2023/03/10 03:36:48;;;;;;;;;;;;;;;15.38;44.48;94331.66;5027301;28;20402;-65
2023/03/10 03:39:21;;;;;;;;;;;;;;;15.14;44.99;94335.31;5027886;28;19957;-63
2023/03/10 03:41:56;;;;;;;;;;;;;;;15.20;44.46;94331.47;5027013;28;20006;-63
2023/03/10 03:44:25;;;;;;;;;;;;;;;15.01;45.40;94330.84;5026907;28;20451;-61
2023/03/10 03:46:53;;;;;;;;;;;;;;;15.02;44.87;94342.97;5026918;28;19958;-62
2023/03/10 03:49:21;;;;;;;;;;;;;;;15.38;44.49;94345.63;5027383;28;19961;-64
2023/03/10 03:51:48;;;;;;;;;;;;;;;15.31;44.75;94344.47;5028575;28;19962;-63
2023/03/10 03:54:15;;;;;;;;;;;;;;;15.31;44.93;94345.22;5028538;28;19960;-63
2023/03/10 03:56:42;;;;;;;;;;;;;;;15.19;45.56;94343.13;5030700;28;19976;-64
2023/03/10 03:59:12;;;;;;;;;;;;;;;14.89;45.42;94354.31;5027035;28;19947;-64
2023/03/10 04:01:42;;;;;;;;;;;;;;;14.57;46.66;94346.50;5026404;28;20330;-64
2023/03/10 04:04:08;;;;;;;;;;;;;;;14.95;45.72;94350.50;5028736;28;19947;-65
2023/03/10 04:06:35;;;;;;;;;;;;;;;15.17;44.84;94341.84;5028431;28;19962;-64
2023/03/10 04:09:03;;;;;;;;;;;;;;;15.17;44.91;94339.22;5028047;28;19987;-63
2023/03/10 04:11:31;;;;;;;;;;;;;;;15.20;44.94;94344.69;5028699;28;20098;-63
2023/03/10 04:13:58;;;;;;;;;;;;;;;15.18;45.10;94346.84;5025814;28;20048;-62
2023/03/10 04:16:26;;;;;;;;;;;;;;;15.27;44.46;94348.78;5027290;28;19981;-67
2023/03/10 04:18:52;;;;;;;;;;;;;;;15.24;44.45;94350.94;5028215;28;20332;-64
2023/03/10 04:21:19;;;;;;;;;;;;;;;15.45;43.85;94345.25;5026654;28;19949;-63
2023/03/10 04:23:49;;;;;;;;;;;;;;;15.33;44.23;94344.97;5027064;28;19951;-65
2023/03/10 04:26:20;;;;;;;;;;;;;;;15.21;45.16;94335.69;5026521;28;19951;-62
2023/03/10 04:28:48;;;;;;;;;;;;;;;15.16;45.09;94338.44;5025747;28;19974;-62
2023/03/10 04:31:17;;;;;;;;;;;;;;;15.11;45.25;94341.19;5038729;28;20051;-64
2023/03/10 04:33:46;;;;;;;;;;;;;;;15.19;44.86;94337.84;5023578;28;20413;-63
2023/03/10 04:36:12;;;;;;;;;;;;;;;15.27;45.19;94329.22;5010015;28;19949;-61
2023/03/10 04:38:41;;;;;;;;;;;;;;;15.23;44.78;94338.03;5028894;28;19953;-62
2023/03/10 04:41:08;;;;;;;;;;;;;;;15.25;45.11;94331.38;5026390;28;20384;-61
2023/03/10 04:43:39;;;;;;;;;;;;;;;14.97;45.54;94329.88;5024500;28;19947;-63
2023/03/10 04:46:09;;;;;;;;;;;;;;;14.99;45.51;94333.00;5029941;28;19950;-64
2023/03/10 04:48:36;;;;;;;;;;;;;;;14.90;45.34;94334.78;5030335;28;19950;-64
2023/03/10 04:51:08;;;;;;;;;;;;;;;14.88;45.32;94331.66;5030123;28;19973;-62
2023/03/10 04:53:39;;;;;;;;;;;;;;;14.99;45.53;94327.72;5035388;28;19951;-61
2023/03/10 04:56:09;;;;;;;;;;;;;;;15.00;45.11;94321.38;5031140;28;19969;-63
2023/03/10 04:58:37;;;;;;;;;;;;;;;14.86;45.43;94319.81;5028928;28;19999;-64
2023/03/10 05:01:07;;;;;;;;;;;;;;;14.87;44.83;94316.88;5025153;28;19981;-62
2023/03/10 05:03:36;;;;;;;;;;;;;;;14.84;45.15;94314.84;5018990;28;19951;-64
2023/03/10 05:06:14;;;;;;;;;;;;;;;14.80;45.79;94313.88;5021782;28;19952;-65
2023/03/10 05:08:44;;;;;;;;;;;;;;;14.77;45.71;94303.91;5023399;28;20044;-65
2023/03/10 05:11:12;;;;;;;;;;;;;;;14.77;45.22;94297.84;5029584;28;19951;-63
2023/03/10 05:13:39;;;;;;;;;;;;;;;14.80;45.76;94292.78;5030173;28;20320;-63
2023/03/10 05:16:15;;;;;;;;;;;;;;;14.68;45.56;94287.22;5028462;28;19966;-64
2023/03/10 05:18:44;;;;;;;;;;;;;;;14.63;46.21;94297.88;5030147;28;20451;-64
2023/03/10 05:21:12;;;;;;;;;;;;;;;14.75;45.38;94300.00;5026629;28;20373;-64
2023/03/10 05:23:40;;;;;;;;;;;;;;;14.89;45.27;94303.44;5029721;28;20680;-63
2023/03/10 05:26:09;;;;;;;;;;;;;;;14.61;46.14;94300.03;5028925;28;19959;-63
2023/03/10 05:28:36;;;;;;;;;;;;;;;14.53;45.81;94297.28;5029636;28;20039;-64
2023/03/10 05:31:08;;;;;;;;;;;;;;;14.67;45.78;94293.56;5029584;28;19957;-62
2023/03/10 05:33:35;;;;;;;;;;;;;;;14.76;45.54;94285.75;5029744;28;20402;-64
2023/03/10 05:36:03;;;;;;;;;;;;;;;14.82;45.87;94280.06;5030088;28;20042;-64
2023/03/10 05:38:31;;;;;;;;;;;;;;;14.22;47.11;94289.16;5030197;28;19970;-66
2023/03/10 05:40:59;;;;;;;;;;;;;;;14.76;46.67;94283.88;5029142;28;19948;-64
2023/03/10 05:43:26;;;;;;;;;;;;;;;15.01;45.97;94279.94;5029422;28;19949;-66
2023/03/10 05:45:57;;;;;;;;;;;;;;;15.02;45.84;94279.63;5028518;28;20427;-65
2023/03/10 05:48:26;;;;;;;;;;;;;;;15.31;44.76;94276.59;5029552;28;19945;-67
2023/03/10 05:51:04;;;;;;;;;;;;;;;15.32;45.20;94280.03;5030868;28;19989;-64
2023/03/10 05:53:31;;;;;;;;;;;;;;;15.34;45.09;94275.25;5029102;28;19942;-64
2023/03/10 05:55:59;;;;;;;;;;;;;;;15.18;45.50;94272.94;5026635;28;20002;-63
2023/03/10 05:58:26;;;;;;;;;;;;;;;15.45;45.18;94269.47;5027727;28;19961;-69
2023/03/10 06:00:55;;;;;;;;;;;;;;;15.42;45.03;94279.84;5027500;28;20040;-66
2023/03/10 06:03:22;;;;;;;;;;;;;;;15.38;45.92;94274.34;5029146;28;19948;-66
2023/03/10 06:05:49;;;;;;;;;;;;;;;15.46;44.72;94267.59;5028215;28;19947;-67
2023/03/10 06:08:16;;;;;;;;;;;;;;;15.49;45.15;94272.28;5028880;28;20311;-65
2023/03/10 06:10:43;;;;;;;;;;;;;;;15.48;44.39;94282.06;5028688;28;19954;-66
2023/03/10 06:13:09;;;;;;;;;;;;;;;15.40;45.39;94279.31;5030251;28;19940;-66
2023/03/10 06:15:36;;;;;;;;;;;;;;;15.66;44.06;94273.16;5030047;28;19959;-66
2023/03/10 06:18:03;;;;;;;;;;;;;;;15.80;44.10;94267.81;5029526;28;19950;-63
2023/03/10 06:20:30;;;;;;;;;;;;;;;15.67;44.48;94279.22;5030118;28;19948;-61
2023/03/10 06:22:56;;;;;;;;;;;;;;;15.55;44.67;94281.63;5030344;28;19950;-66
2023/03/10 06:25:23;;;;;;;;;;;;;;;15.87;43.94;94273.44;5030471;28;19952;-64
2023/03/10 06:27:50;;;;;;;;;;;;;;;16.01;44.21;94276.78;5017457;28;19999;-65
2023/03/10 06:30:16;;;;;;;;;;;;;;;15.90;45.10;94278.13;5030195;28;19986;-63
2023/03/10 06:32:44;;;;;;;;;;;;;;;16.14;44.92;94283.84;5029567;28;20519;-66
2023/03/10 06:35:13;;;;;;;;;;;;;;;16.09;43.88;94286.63;5030447;28;19960;-66
2023/03/10 06:37:40;;;;;;;;;;;;;;;15.96;44.01;94276.91;5030166;28;19950;-65
2023/03/10 06:40:08;;;;;;;;;;;;;;;16.09;43.70;94276.06;5029767;28;19956;-64
2023/03/10 06:42:35;;;;;;;;;;;;;;;16.17;43.70;94273.44;5029261;28;19954;-62
2023/03/10 06:45:02;;;;;;;;;;;;;;;15.92;44.39;94278.59;5029550;28;20049;-65
2023/03/10 06:47:28;;;;;;;;;;;;;;;15.99;44.27;94271.81;5029628;28;19975;-64
2023/03/10 06:49:55;;;;;;;;;;;;;;;16.15;44.02;94278.25;5029562;28;19949;-64
2023/03/10 06:52:22;;;;;;;;;;;;;;;16.16;44.58;94271.91;5029741;28;19953;-64
2023/03/10 06:54:49;;;;;;;;;;;;;;;16.27;43.80;94272.41;5029706;28;20049;-64
2023/03/10 06:57:15;;;;;;;;;;;;;;;16.34;43.42;94270.09;5029373;28;20413;-66
2023/03/10 06:59:45;;;;;;;;;;;;;;;16.31;43.80;94278.63;5029827;28;19953;-63
2023/03/10 07:02:12;;;;;;;;;;;;;;;16.36;43.37;94275.84;5029038;28;20409;-62
2023/03/10 07:04:39;;;;;;;;;;;;;;;16.35;43.38;94279.56;5029819;28;19949;-65
2023/03/10 07:07:05;;;;;;;;;;;;;;;16.45;43.43;94289.88;5028859;28;19956;-67
2023/03/10 07:09:32;;;;;;;;;;;;;;;16.47;43.54;94282.44;5029621;28;19955;-65
2023/03/10 07:11:59;;;;;;;;;;;;;;;16.46;42.75;94280.84;5028627;28;19963;-65
2023/03/10 07:14:26;;;;;;;;;;;;;;;16.50;43.57;94276.53;5016913;28;19944;-67
2023/03/10 07:16:52;;;;;;;;;;;;;;;16.50;43.70;94270.47;5027780;28;20085;-63
2023/03/10 07:19:19;;;;;;;;;;;;;;;16.66;43.29;94264.44;5029493;28;20020;-63
2023/03/10 07:21:46;;;;;;;;;;;;;;;16.67;43.54;94259.94;5029240;28;19948;-64
2023/03/10 07:24:13;;;;;;;;;;;;;;;16.77;42.97;94252.50;5029428;28;19952;-64
2023/03/10 07:26:40;;;;;;;;;;;;;;;16.55;43.59;94252.59;5029269;28;19995;-64
2023/03/10 07:29:07;;;;;;;;;;;;;;;16.77;42.95;94252.50;5029205;28;19946;-64
2023/03/10 07:31:35;;;;;;;;;;;;;;;16.93;43.08;94252.84;5028817;28;20018;-66
2023/03/10 07:34:02;;;;;;;;;;;;;;;16.98;42.34;94244.75;5029225;28;19985;-62
2023/03/10 07:36:28;;;;;;;;;;;;;;;17.09;42.54;94246.00;5029149;28;20013;-67
2023/03/10 07:38:55;;;;;;;;;;;;;;;17.20;42.57;94253.31;5029468;28;19960;-64
2023/03/10 07:41:22;;;;;;;;;;;;;;;17.24;42.28;94248.94;5029265;28;20055;-69
2023/03/10 07:43:52;;;;;;;;;;;;;;;17.36;41.96;94239.59;5029322;28;19948;-64
2023/03/10 07:46:19;;;;;;;;;;;;;;;17.22;42.29;94240.53;5028020;28;19957;-67
2023/03/10 07:48:47;;;;;;;;;;;;;;;17.33;42.52;94235.72;5029404;28;19991;-64
2023/03/10 07:51:13;;;;;;;;;;;;;;;17.33;42.70;94234.94;5028441;28;19969;-65
2023/03/10 07:53:40;;;;;;;;;;;;;;;17.35;42.17;94222.16;5029063;28;19942;-67
2023/03/10 07:56:08;;;;;;;;;;;;;;;17.54;42.09;94219.97;5028327;28;19989;-64
2023/03/10 07:58:35;;;;;;;;;;;;;;;17.30;42.01;94209.84;5027303;28;20362;-67
2023/03/10 08:01:02;;;;;;;;;;;;;;;17.39;41.90;94212.50;5029066;28;20045;-65
2023/03/10 08:03:29;;;;;;;;;;;;;;;17.57;41.90;94211.41;5029576;28;19996;-63
2023/03/10 08:05:56;;;;;;;;;;;;;;;17.64;41.59;94198.47;5028536;28;20390;-66
2023/03/10 08:08:22;;;;;;;;;;;;;;;17.74;41.97;94192.81;5029301;28;19946;-68
2023/03/10 08:10:49;;;;;;;;;;;;;;;17.83;41.96;94196.22;5029085;28;20655;-62
2023/03/10 08:13:16;;;;;;;;;;;;;;;18.04;40.99;94197.09;5029088;28;20311;-64
2023/03/10 08:15:42;;;;;;;;;;;;;;;17.86;41.15;94190.28;5027155;28;20030;-66
2023/03/10 08:18:10;;;;;;;;;;;;;;;17.89;40.88;94190.44;5029027;28;19954;-67
2023/03/10 08:20:39;;;;;;;;;;;;;;;17.69;41.19;94177.09;5031194;28;19986;-67
2023/03/10 08:23:06;;;;;;;;;;;;;;;17.81;41.53;94171.91;5032563;28;20315;-61
2023/03/10 08:25:32;;;;;;;;;;;;;;;17.84;41.78;94165.97;5030355;28;20039;-65
2023/03/10 08:27:59;;;;;;;;;;;;;;;18.05;41.25;94166.81;5032181;28;19957;-65
2023/03/10 08:30:26;;;;;;;;;;;;;;;17.97;41.55;94157.03;5031790;28;19985;-64
2023/03/10 08:32:53;;;;;;;;;;;;;;;18.26;40.75;94151.75;5032428;28;19961;-63
2023/03/10 08:35:19;;;;;;;;;;;;;;;18.20;40.54;94148.50;5032303;28;20088;-63
2023/03/10 08:37:46;;;;;;;;;;;;;;;18.33;40.45;94146.72;5031857;28;20469;-62
2023/03/10 08:40:13;;;;;;;;;;;;;;;18.42;40.79;94131.56;5032852;28;20052;-66
2023/03/10 08:42:40;;;;;;;;;;;;;;;18.46;40.79;94127.16;5031863;28;20320;-63
2023/03/10 08:45:07;;;;;;;;;;;;;;;18.75;40.46;94121.00;5030487;28;19946;-62
2023/03/10 08:47:34;;;;;;;;;;;;;;;18.89;40.19;94122.28;5032199;28;19956;-63
2023/03/10 08:50:03;;;;;;;;;;;;;;;17.93;40.87;94129.63;5030488;28;20629;-64
2023/03/10 08:52:30;;;;;;;;;;;;;;;18.54;40.17;94120.25;5031937;28;19967;-62
2023/03/10 08:54:57;;;;;;;;;;;;;;;19.14;39.74;94113.31;5031605;28;19990;-66
2023/03/10 08:57:25;;;;;;;;;;;;;;;19.35;39.28;94117.84;5031692;28;19976;-64
2023/03/10 08:59:52;;;;;;;;;;;;;;;19.63;39.02;94108.16;5031946;28;19950;-67
2023/03/10 09:02:20;;;;;;;;;;;;;;;19.49;39.17;94113.03;5032420;28;19960;-61
2023/03/10 09:04:47;;;;;;;;;;;;;;;19.80;39.04;94102.63;5033048;28;20324;-67
2023/03/10 09:07:14;;;;;;;;;;;;;;;20.09;38.44;94097.88;5031738;28;20481;-63
2023/03/10 09:09:41;;;;;;;;;;;;;;;20.28;37.93;94085.91;5032292;28;19982;-63
2023/03/10 09:12:08;;;;;;;;;;;;;;;20.43;37.34;94083.34;5031174;28;19967;-65
2023/03/10 09:14:35;;;;;;;;;;;;;;;20.39;37.13;94085.13;5031882;28;19999;-65
2023/03/10 09:17:02;;;;;;;;;;;;;;;20.25;37.27;94082.06;5031221;28;19976;-66
2023/03/10 09:19:29;;;;;;;;;;;;;;;19.85;37.52;94083.81;5031735;28;20386;-61
2023/03/10 09:21:58;;;;;;;;;;;;;;;19.85;37.55;94079.25;5030868;28;20315;-64
2023/03/10 09:24:25;;;;;;;;;;;;;;;19.82;37.99;94079.16;5031581;28;20059;-66
2023/03/10 09:26:52;;;;;;;;;;;;;;;20.08;37.70;94071.59;5030808;28;19947;-62
2023/03/10 09:29:18;;;;;;;;;;;;;;;20.10;37.90;94064.84;5031465;28;19955;-63
2023/03/10 09:31:52;;;;;;;;;;;;;;;20.22;38.01;94065.97;5032216;28;19944;-66
2023/03/10 09:34:19;;;;;;;;;;;;;;;20.41;38.18;94064.28;5031782;28;20354;-63
2023/03/10 09:36:46;;;;;;;;;;;;;;;20.38;38.36;94070.28;5030529;28;20004;-66
2023/03/10 09:39:13;;;;;;;;;;;;;;;20.31;37.88;94059.41;5031561;28;19992;-65
2023/03/10 09:41:43;;;;;;;;;;;;;;;19.90;37.93;94059.66;5030840;28;19956;-64
2023/03/10 09:44:29;;;;;;;;;;;;;;;20.06;38.19;94063.19;5031795;28;19949;-67
2023/03/10 09:47:26;;;;;;;;;;;;;;;19.97;38.65;94054.56;5031139;28;20406;-65
2023/03/10 09:50:09;;;;;;;;;;;;;;;20.13;38.43;94047.44;5021763;28;20449;-65
2023/03/10 09:52:44;;;;;;;;;;;;;;;19.99;38.55;94047.81;5030408;28;19946;-66
2023/03/10 09:55:14;;;;;;;;;;;;;;;19.97;38.67;94043.91;5018688;28;20392;-68
2023/03/10 09:57:40;;;;;;;;;;;;;;;19.96;38.72;94039.72;5030418;28;20409;-66
2023/03/10 10:00:10;;;;;;;;;;;;;;;19.93;38.50;94038.50;5030925;28;19952;-63
2023/03/10 10:02:41;;;;;;;;;;;;;;;19.72;38.56;94039.72;5030072;28;20018;-67
2023/03/10 10:05:14;;;;;;;;;;;;;;;19.74;38.84;94037.50;5030829;28;19953;-62
2023/03/10 10:07:45;;;;;;;;;;;;;;;19.67;38.98;94032.72;5030046;28;19955;-65
2023/03/10 10:10:23;;;;;;;;;;;;;;;19.59;39.49;94030.97;5030660;28;19955;-64
2023/03/10 10:12:51;;;;;;;;;;;;;;;19.64;39.59;94024.66;5030037;28;19955;-66
2023/03/10 10:15:21;;;;;;;;;;;;;;;19.61;39.48;94020.00;5030879;28;19952;-66
2023/03/10 10:17:48;;;;;;;;;;;;;;;19.51;40.08;94020.44;5030619;28;20403;-65
2023/03/10 10:20:27;;;;;;;;;;;;;;;19.58;40.12;94015.38;5030335;28;19956;-68
2023/03/10 10:22:54;;;;;;;;;;;;;;;19.49;40.09;94012.06;5030815;28;19943;-65
2023/03/10 10:25:24;;;;;;;;;;;;;;;19.58;40.18;94004.75;5030722;28;19951;-65
2023/03/10 10:27:52;;;;;;;;;;;;;;;19.42;40.46;94012.59;5018417;28;19951;-61
2023/03/10 10:30:28;;;;;;;;;;;;;;;19.26;40.22;94014.31;5031368;28;20066;-62
2023/03/10 10:33:05;;;;;;;;;;;;;;;19.14;40.35;94011.66;5030885;28;20429;-62
2023/03/10 10:35:33;;;;;;;;;;;;;;;19.22;40.12;94008.09;5037399;28;19954;-60
2023/03/10 10:38:16;;;;;;;;;;;;;;;19.32;39.90;94001.63;5040741;28;20424;-61
2023/03/10 10:40:48;;;;;;;;;;;;;;;19.32;39.80;93997.09;5026270;28;19971;-61
2023/03/10 10:43:16;;;;;;;;;;;;;;;19.47;39.91;93998.31;5034376;28;20033;-66
2023/03/10 10:45:43;;;;;;;;;;;;;;;19.34;40.40;94004.72;5029743;28;20070;-66
2023/03/10 10:48:28;;;;;;;;;;;;;;;19.44;40.39;94004.28;5030085;28;19987;-65
2023/03/10 10:50:55;;;;;;;;;;;;;;;19.50;40.14;94001.09;5029631;28;20428;-63
2023/03/10 10:53:23;;;;;;;;;;;;;;;19.58;40.09;94000.19;5029618;28;19998;-63
2023/03/10 10:56:10;;;;;;;;;;;;;;;19.37;39.91;94004.06;5029695;28;19975;-67
2023/03/10 10:58:38;;;;;;;;;;;;;;;19.35;40.69;93992.97;5018913;28;20013;-67
2023/03/10 11:01:06;;;;;;;;;;;;;;;19.33;40.72;93988.00;5029116;28;20297;-65
2023/03/10 11:03:35;;;;;;;;;;;;;;;19.42;40.46;93985.22;5029408;28;20324;-68
2023/03/10 11:06:21;;;;;;;;;;;;;;;19.46;40.20;93984.25;5028945;28;19950;-64
2023/03/10 11:08:51;;;;;;;;;;;;;;;19.31;40.04;93978.78;5029706;28;19984;-63
2023/03/10 11:11:41;;;;;;;;;;;;;;;18.79;41.34;93983.91;5016454;28;19942;-64
2023/03/10 11:14:15;;;;;;;;;;;;;;;19.01;40.97;93978.97;5028558;28;20347;-64
2023/03/10 11:17:05;;;;;;;;;;;;;;;18.67;40.29;93982.00;5029544;28;19947;-63
2023/03/10 11:19:48;;;;;;;;;;;;;;;18.43;39.25;93959.91;5018716;28;19953;-62
2023/03/10 11:22:22;;;;;;;;;;;;;;;18.61;39.26;93943.50;5027592;28;20408;-63
2023/03/10 11:25:21;;;;;;;;;;;;;;;18.88;39.38;93931.50;5029225;28;19978;-64
2023/03/10 11:27:55;;;;;;;;;;;;;;;19.20;39.01;93934.06;5028286;28;19988;-61
2023/03/10 11:30:28;;;;;;;;;;;;;;;19.38;38.75;93932.00;5017997;28;20044;-65
2023/03/10 11:33:00;;;;;;;;;;;;;;;18.87;38.36;93928.06;5030153;28;19955;-64
2023/03/10 11:35:35;;;;;;;;;;;;;;;18.90;38.39;93908.81;5032044;28;19959;-65
2023/03/10 11:38:09;;;;;;;;;;;;;;;19.41;38.04;93910.09;5031513;28;20342;-67
2023/03/10 11:40:53;;;;;;;;;;;;;;;19.14;37.99;93910.75;5030057;28;19984;-63
2023/03/10 11:43:27;;;;;;;;;;;;;;;19.27;39.00;93892.91;5020458;28;19981;-62
2023/03/10 11:45:55;;;;;;;;;;;;;;;19.35;38.76;93892.81;5030832;28;20011;-61
2023/03/10 11:48:22;;;;;;;;;;;;;;;19.40;39.67;93902.44;5031415;28;19947;-62
2023/03/10 11:50:53;;;;;;;;;;;;;;;19.39;40.00;93900.91;5031725;28;19956;-64
2023/03/10 11:53:36;;;;;;;;;;;;;;;19.36;40.54;93901.56;5030607;28;19981;-63
2023/03/10 11:56:04;;;;;;;;;;;;;;;18.92;41.02;93882.72;5034420;28;19974;-64
2023/03/10 11:58:37;;;;;;;;;;;;;;;19.00;40.94;93873.09;5034140;28;20008;-63
2023/03/10 12:01:05;;;;;;;;;;;;;;;18.93;40.32;93857.75;5033672;28;19949;-65
2023/03/10 12:03:35;;;;;;;;;;;;;;;18.82;39.67;93846.00;5034667;28;20012;-63
2023/03/10 12:06:06;;;;;;;;;;;;;;;18.27;40.31;93850.97;5034927;28;19988;-64
2023/03/10 12:08:34;;;;;;;;;;;;;;;18.60;40.11;93859.69;5033198;28;19950;-61
2023/03/10 12:11:03;;;;;;;;;;;;;;;18.39;40.43;93848.38;5032173;28;20357;-64
2023/03/10 12:13:34;;;;;;;;;;;;;;;18.48;40.73;93817.25;5033117;28;20375;-66
2023/03/10 12:16:03;;;;;;;;;;;;;;;18.22;41.20;93822.03;5018300;28;20011;-64
2023/03/10 12:18:29;;;;;;;;;;;;;;;18.48;40.21;93824.44;5032253;28;20034;-66
2023/03/10 12:21:13;;;;;;;;;;;;;;;18.71;40.28;93834.28;5032143;28;20044;-63
2023/03/10 12:23:50;;;;;;;;;;;;;;;18.78;39.95;93834.50;5033094;28;19993;-63
2023/03/10 12:26:35;;;;;;;;;;;;;;;18.75;40.31;93840.50;5020753;28;20012;-61
2023/03/10 12:29:23;;;;;;;;;;;;;;;18.80;40.37;93827.00;5033542;28;20424;-68
2023/03/10 12:31:51;;;;;;;;;;;;;;;18.98;40.18;93811.59;5035299;28;19950;-66
2023/03/10 12:34:22;;;;;;;;;;;;;;;18.93;40.22;93795.91;5033029;28;19951;-63
2023/03/10 12:37:10;;;;;;;;;;;;;;;18.65;40.74;93803.75;5031912;28;19968;-66
2023/03/10 12:39:41;;;;;;;;;;;;;;;18.67;41.00;93806.84;5031130;28;20012;-64
2023/03/10 12:42:20;;;;;;;;;;;;;;;18.53;40.01;93811.72;5032400;28;20399;-63
2023/03/10 12:44:48;;;;;;;;;;;;;;;18.90;40.30;93821.22;5033497;28;19969;-65
2023/03/10 12:47:24;;;;;;;;;;;;;;;18.74;40.43;93811.63;5032062;28;19945;-60
2023/03/10 12:50:01;;;;;;;;;;;;;;;18.81;40.50;93806.53;5032936;28;20420;-64
2023/03/10 12:52:46;;;;;;;;;;;;;;;18.97;40.27;93797.56;5032108;28;20024;-65
2023/03/10 12:55:13;;;;;;;;;;;;;;;19.07;39.45;93788.34;5032477;28;19939;-64
2023/03/10 12:57:55;;;;;;;;;;;;;;;19.04;39.14;93779.19;5032001;28;20317;-65
2023/03/10 13:00:28;;;;;;;;;;;;;;;19.18;39.24;93786.78;5032592;28;19957;-67